sensor_id;sensor_type;location;lat;lon;timestamp;temperature;humidity
20459;DHT22;10388;52.314;7.938;2024-03-02T00:02:22;6.50;99.90
20459;DHT22;10388;52.314;7.938;2024-03-02T00:04:53;6.30;99.90
20459;DHT22;10388;52.314;7.938;2024-03-02T00:07:23;6.50;99.90
20459;DHT22;10388;52.314;7.938;2024-03-02T00:09:55;6.50;99.90
20459;DHT22;10388;52.314;7.938;2024-03-02T00:12:25;6.40;99.90
20459;DHT22;10388;52.314;7.938;2024-03-02T00:14:56;6.40;99.90
20459;DHT22;10388;52.314;7.938;2024-03-02T00:17:26;6.30;99.90
20459;DHT22;10388;52.314;7.938;2024-03-02T00:19:57;6.20;99.90
20459;DHT22;10388;52.314;7.938;2024-03-02T00:22:28;6.20;99.90
20459;DHT22;10388;52.314;7.938;2024-03-02T00:24:59;6.20;99.90
20459;DHT22;10388;52.314;7.938;2024-03-02T00:27:29;6.10;99.90
20459;DHT22;10388;52.314;7.938;2024-03-02T00:30:01;6.10;99.90
20459;DHT22;10388;52.314;7.938;2024-03-02T00:32:32;6.10;99.90
20459;DHT22;10388;52.314;7.938;2024-03-02T00:35:05;6.10;99.90
20459;DHT22;10388;52.314;7.938;2024-03-02T00:37:35;6.10;99.90
20459;DHT22;10388;52.314;7.938;2024-03-02T00:40:06;6.00;99.90
20459;DHT22;10388;52.314;7.938;2024-03-02T00:42:38;6.00;99.90
20459;DHT22;10388;52.314;7.938;2024-03-02T00:45:09;5.90;99.90
20459;DHT22;10388;52.314;7.938;2024-03-02T00:47:40;5.80;99.90
20459;DHT22;10388;52.314;7.938;2024-03-02T00:50:10;6.00;99.90
20459;DHT22;10388;52.314;7.938;2024-03-02T00:52:41;6.00;99.90
20459;DHT22;10388;52.314;7.938;2024-03-02T00:55:12;6.00;99.90
20459;DHT22;10388;52.314;7.938;2024-03-02T00:57:42;6.00;99.90
20459;DHT22;10388;52.314;7.938;2024-03-02T01:00:15;6.00;99.90
20459;DHT22;10388;52.314;7.938;2024-03-02T01:02:47;6.00;99.90
20459;DHT22;10388;52.314;7.938;2024-03-02T01:05:18;5.90;99.90
20459;DHT22;10388;52.314;7.938;2024-03-02T01:07:49;5.90;99.90
20459;DHT22;10388;52.314;7.938;2024-03-02T01:10:19;6.00;99.90
20459;DHT22;10388;52.314;7.938;2024-03-02T01:12:50;6.00;99.90
20459;DHT22;10388;52.314;7.938;2024-03-02T01:15:21;6.00;99.90
20459;DHT22;10388;52.314;7.938;2024-03-02T01:17:52;6.00;99.90
20459;DHT22;10388;52.314;7.938;2024-03-02T01:20:23;6.10;99.90
20459;DHT22;10388;52.314;7.938;2024-03-02T01:22:55;6.00;99.90
20459;DHT22;10388;52.314;7.938;2024-03-02T01:25:25;6.00;99.90
20459;DHT22;10388;52.314;7.938;2024-03-02T01:27:56;6.00;99.90
20459;DHT22;10388;52.314;7.938;2024-03-02T01:38:28;6.10;99.90
20459;DHT22;10388;52.314;7.938;2024-03-02T01:40:59;6.00;99.90
20459;DHT22;10388;52.314;7.938;2024-03-02T03:14:52;6.00;99.90
20459;DHT22;10388;52.314;7.938;2024-03-02T03:17:26;5.90;99.90
20459;DHT22;10388;52.314;7.938;2024-03-02T03:19:59;6.00;99.90
20459;DHT22;10388;52.314;7.938;2024-03-02T03:22:31;6.00;99.90
20459;DHT22;10388;52.314;7.938;2024-03-02T03:25:02;5.90;99.90
20459;DHT22;10388;52.314;7.938;2024-03-02T03:27:41;5.90;99.90
20459;DHT22;10388;52.314;7.938;2024-03-02T03:30:12;5.90;99.90
20459;DHT22;10388;52.314;7.938;2024-03-02T03:32:53;6.00;99.90
20459;DHT22;10388;52.314;7.938;2024-03-02T03:35:24;5.80;99.90
20459;DHT22;10388;52.314;7.938;2024-03-02T03:37:57;5.80;99.90
20459;DHT22;10388;52.314;7.938;2024-03-02T03:40:34;5.80;99.90
20459;DHT22;10388;52.314;7.938;2024-03-02T03:43:13;5.80;99.90
20459;DHT22;10388;52.314;7.938;2024-03-02T03:45:47;5.70;99.90
20459;DHT22;10388;52.314;7.938;2024-03-02T03:48:18;5.70;99.90
20459;DHT22;10388;52.314;7.938;2024-03-02T03:50:55;5.70;99.90
20459;DHT22;10388;52.314;7.938;2024-03-02T03:53:26;5.80;99.90
20459;DHT22;10388;52.314;7.938;2024-03-02T03:55:59;5.90;99.90
20459;DHT22;10388;52.314;7.938;2024-03-02T03:58:33;5.80;99.90
20459;DHT22;10388;52.314;7.938;2024-03-02T04:01:04;5.80;99.90
20459;DHT22;10388;52.314;7.938;2024-03-02T04:03:34;5.80;99.90
20459;DHT22;10388;52.314;7.938;2024-03-02T04:06:05;5.70;99.90
20459;DHT22;10388;52.314;7.938;2024-03-02T04:08:36;5.70;99.90
20459;DHT22;10388;52.314;7.938;2024-03-02T04:11:07;5.70;99.90
20459;DHT22;10388;52.314;7.938;2024-03-02T04:13:38;5.70;99.90
20459;DHT22;10388;52.314;7.938;2024-03-02T04:16:12;5.80;99.90
20459;DHT22;10388;52.314;7.938;2024-03-02T04:18:42;5.80;99.90
20459;DHT22;10388;52.314;7.938;2024-03-02T04:21:16;5.70;99.90
20459;DHT22;10388;52.314;7.938;2024-03-02T04:23:47;5.80;99.90
20459;DHT22;10388;52.314;7.938;2024-03-02T04:26:18;5.80;99.90
20459;DHT22;10388;52.314;7.938;2024-03-02T04:29:01;5.70;99.90
20459;DHT22;10388;52.314;7.938;2024-03-02T04:31:38;5.70;99.90
20459;DHT22;10388;52.314;7.938;2024-03-02T04:34:09;5.70;99.90
20459;DHT22;10388;52.314;7.938;2024-03-02T04:36:42;5.80;99.90
20459;DHT22;10388;52.314;7.938;2024-03-02T04:39:12;5.70;99.90
20459;DHT22;10388;52.314;7.938;2024-03-02T04:41:43;5.70;99.90
20459;DHT22;10388;52.314;7.938;2024-03-02T04:44:14;5.60;99.90
20459;DHT22;10388;52.314;7.938;2024-03-02T04:46:52;5.70;99.90
20459;DHT22;10388;52.314;7.938;2024-03-02T04:49:23;5.60;99.90
20459;DHT22;10388;52.314;7.938;2024-03-02T04:51:59;5.60;99.90
20459;DHT22;10388;52.314;7.938;2024-03-02T04:54:32;5.70;99.90
20459;DHT22;10388;52.314;7.938;2024-03-02T04:57:03;5.60;99.90
20459;DHT22;10388;52.314;7.938;2024-03-02T04:59:34;5.60;99.90
20459;DHT22;10388;52.314;7.938;2024-03-02T05:02:04;5.70;99.90
20459;DHT22;10388;52.314;7.938;2024-03-02T05:04:40;5.60;99.90
20459;DHT22;10388;52.314;7.938;2024-03-02T05:07:30;5.60;99.90
20459;DHT22;10388;52.314;7.938;2024-03-02T05:10:10;5.60;99.90
20459;DHT22;10388;52.314;7.938;2024-03-02T05:12:42;5.60;99.90
20459;DHT22;10388;52.314;7.938;2024-03-02T05:15:14;5.60;99.90
20459;DHT22;10388;52.314;7.938;2024-03-02T05:17:44;5.50;99.90
20459;DHT22;10388;52.314;7.938;2024-03-02T05:20:15;5.50;99.90
20459;DHT22;10388;52.314;7.938;2024-03-02T05:22:46;5.50;99.90
20459;DHT22;10388;52.314;7.938;2024-03-02T05:25:17;5.50;99.90
20459;DHT22;10388;52.314;7.938;2024-03-02T05:27:48;5.50;99.90
20459;DHT22;10388;52.314;7.938;2024-03-02T05:30:18;5.70;99.90
20459;DHT22;10388;52.314;7.938;2024-03-02T05:32:49;5.60;99.90
20459;DHT22;10388;52.314;7.938;2024-03-02T05:35:19;5.50;99.90
20459;DHT22;10388;52.314;7.938;2024-03-02T05:37:50;5.60;99.90
20459;DHT22;10388;52.314;7.938;2024-03-02T05:40:21;5.50;99.90
20459;DHT22;10388;52.314;7.938;2024-03-02T05:42:51;5.60;99.90
20459;DHT22;10388;52.314;7.938;2024-03-02T05:45:22;5.70;99.90
20459;DHT22;10388;52.314;7.938;2024-03-02T05:47:52;5.50;99.90
20459;DHT22;10388;52.314;7.938;2024-03-02T05:50:23;5.50;99.90
20459;DHT22;10388;52.314;7.938;2024-03-02T05:52:53;5.50;99.90
20459;DHT22;10388;52.314;7.938;2024-03-02T05:55:24;5.50;99.90
20459;DHT22;10388;52.314;7.938;2024-03-02T05:57:55;5.50;99.90
20459;DHT22;10388;52.314;7.938;2024-03-02T06:00:37;5.60;99.90
20459;DHT22;10388;52.314;7.938;2024-03-02T06:03:08;5.60;99.90
20459;DHT22;10388;52.314;7.938;2024-03-02T06:05:39;5.60;99.90
20459;DHT22;10388;52.314;7.938;2024-03-02T06:08:11;5.60;99.90
20459;DHT22;10388;52.314;7.938;2024-03-02T06:10:41;5.50;99.90
20459;DHT22;10388;52.314;7.938;2024-03-02T06:13:12;5.50;99.90
20459;DHT22;10388;52.314;7.938;2024-03-02T06:15:42;5.60;99.90
20459;DHT22;10388;52.314;7.938;2024-03-02T06:18:13;5.60;99.90
20459;DHT22;10388;52.314;7.938;2024-03-02T06:20:44;5.50;99.90
20459;DHT22;10388;52.314;7.938;2024-03-02T06:23:15;5.50;99.90
20459;DHT22;10388;52.314;7.938;2024-03-02T06:25:46;5.60;99.90
20459;DHT22;10388;52.314;7.938;2024-03-02T06:28:16;5.60;99.90
20459;DHT22;10388;52.314;7.938;2024-03-02T06:30:47;5.60;99.90
20459;DHT22;10388;52.314;7.938;2024-03-02T06:33:17;5.60;99.90
20459;DHT22;10388;52.314;7.938;2024-03-02T06:35:48;5.60;99.90
20459;DHT22;10388;52.314;7.938;2024-03-02T06:38:19;5.60;99.90
20459;DHT22;10388;52.314;7.938;2024-03-02T06:40:50;5.70;99.90
20459;DHT22;10388;52.314;7.938;2024-03-02T06:43:21;5.60;99.90
20459;DHT22;10388;52.314;7.938;2024-03-02T06:45:54;5.60;99.90
20459;DHT22;10388;52.314;7.938;2024-03-02T06:48:24;5.50;99.90
20459;DHT22;10388;52.314;7.938;2024-03-02T06:50:55;5.50;99.90
20459;DHT22;10388;52.314;7.938;2024-03-02T06:53:26;5.70;99.90
20459;DHT22;10388;52.314;7.938;2024-03-02T06:55:58;5.80;99.90
20459;DHT22;10388;52.314;7.938;2024-03-02T06:58:28;5.80;99.90
20459;DHT22;10388;52.314;7.938;2024-03-02T07:00:59;5.80;99.90
20459;DHT22;10388;52.314;7.938;2024-03-02T07:03:30;5.70;99.90
20459;DHT22;10388;52.314;7.938;2024-03-02T07:06:01;5.70;99.90
20459;DHT22;10388;52.314;7.938;2024-03-02T07:08:32;5.70;99.90
20459;DHT22;10388;52.314;7.938;2024-03-02T07:11:02;5.70;99.90
20459;DHT22;10388;52.314;7.938;2024-03-02T07:13:33;5.80;99.90
20459;DHT22;10388;52.314;7.938;2024-03-02T07:16:04;5.80;99.90
20459;DHT22;10388;52.314;7.938;2024-03-02T07:18:34;5.80;99.90
20459;DHT22;10388;52.314;7.938;2024-03-02T07:21:10;5.90;99.90
20459;DHT22;10388;52.314;7.938;2024-03-02T07:23:40;6.00;99.90
20459;DHT22;10388;52.314;7.938;2024-03-02T07:26:11;6.10;99.90
20459;DHT22;10388;52.314;7.938;2024-03-02T07:28:42;6.10;99.90
20459;DHT22;10388;52.314;7.938;2024-03-02T07:31:14;6.30;99.90
20459;DHT22;10388;52.314;7.938;2024-03-02T07:33:45;6.40;99.90
20459;DHT22;10388;52.314;7.938;2024-03-02T07:36:19;6.50;99.90
20459;DHT22;10388;52.314;7.938;2024-03-02T07:38:49;6.50;99.90
20459;DHT22;10388;52.314;7.938;2024-03-02T07:41:21;6.60;99.90
20459;DHT22;10388;52.314;7.938;2024-03-02T07:43:51;6.70;99.90
20459;DHT22;10388;52.314;7.938;2024-03-02T07:46:22;6.80;99.90
20459;DHT22;10388;52.314;7.938;2024-03-02T07:48:52;6.90;99.90
20459;DHT22;10388;52.314;7.938;2024-03-02T07:51:23;6.90;99.90
20459;DHT22;10388;52.314;7.938;2024-03-02T07:53:53;7.00;99.90
20459;DHT22;10388;52.314;7.938;2024-03-02T07:56:24;7.10;99.90
20459;DHT22;10388;52.314;7.938;2024-03-02T07:58:55;7.20;99.90
20459;DHT22;10388;52.314;7.938;2024-03-02T08:01:31;7.30;99.90
20459;DHT22;10388;52.314;7.938;2024-03-02T08:04:02;7.30;99.90
20459;DHT22;10388;52.314;7.938;2024-03-02T08:06:35;7.30;99.90
20459;DHT22;10388;52.314;7.938;2024-03-02T08:09:06;7.30;99.90
20459;DHT22;10388;52.314;7.938;2024-03-02T08:11:40;7.30;99.90
20459;DHT22;10388;52.314;7.938;2024-03-02T08:14:11;7.50;99.90
20459;DHT22;10388;52.314;7.938;2024-03-02T08:16:41;7.60;99.90
20459;DHT22;10388;52.314;7.938;2024-03-02T08:19:12;7.70;99.90
20459;DHT22;10388;52.314;7.938;2024-03-02T08:21:43;7.70;99.90
20459;DHT22;10388;52.314;7.938;2024-03-02T08:24:14;7.90;99.90
20459;DHT22;10388;52.314;7.938;2024-03-02T08:26:45;7.90;99.90
20459;DHT22;10388;52.314;7.938;2024-03-02T08:29:15;8.00;99.90
20459;DHT22;10388;52.314;7.938;2024-03-02T08:31:46;8.10;99.90
20459;DHT22;10388;52.314;7.938;2024-03-02T08:34:17;8.10;99.90
20459;DHT22;10388;52.314;7.938;2024-03-02T08:36:47;8.20;99.90
20459;DHT22;10388;52.314;7.938;2024-03-02T08:39:18;8.30;99.90
20459;DHT22;10388;52.314;7.938;2024-03-02T08:41:50;8.40;99.90
20459;DHT22;10388;52.314;7.938;2024-03-02T08:44:20;8.50;99.90
20459;DHT22;10388;52.314;7.938;2024-03-02T08:46:52;8.70;99.90
20459;DHT22;10388;52.314;7.938;2024-03-02T08:49:22;8.80;99.90
20459;DHT22;10388;52.314;7.938;2024-03-02T08:51:54;8.90;99.90
20459;DHT22;10388;52.314;7.938;2024-03-02T08:54:27;9.00;99.90
20459;DHT22;10388;52.314;7.938;2024-03-02T08:56:58;9.00;99.90
20459;DHT22;10388;52.314;7.938;2024-03-02T08:59:28;9.10;99.90
20459;DHT22;10388;52.314;7.938;2024-03-02T09:01:59;9.10;99.90
20459;DHT22;10388;52.314;7.938;2024-03-02T09:04:30;9.10;99.90
20459;DHT22;10388;52.314;7.938;2024-03-02T09:07:01;9.20;99.90
20459;DHT22;10388;52.314;7.938;2024-03-02T09:09:32;9.30;99.90
20459;DHT22;10388;52.314;7.938;2024-03-02T09:12:02;9.30;99.90
20459;DHT22;10388;52.314;7.938;2024-03-02T09:14:33;9.40;99.90
20459;DHT22;10388;52.314;7.938;2024-03-02T09:17:05;9.50;99.90
20459;DHT22;10388;52.314;7.938;2024-03-02T09:19:35;9.50;99.90
20459;DHT22;10388;52.314;7.938;2024-03-02T09:22:06;9.60;99.90
20459;DHT22;10388;52.314;7.938;2024-03-02T09:24:37;9.60;99.90
20459;DHT22;10388;52.314;7.938;2024-03-02T09:27:07;9.70;99.90
20459;DHT22;10388;52.314;7.938;2024-03-02T09:29:38;9.80;99.90
20459;DHT22;10388;52.314;7.938;2024-03-02T09:32:12;9.80;99.90
20459;DHT22;10388;52.314;7.938;2024-03-02T09:34:43;9.90;99.90
20459;DHT22;10388;52.314;7.938;2024-03-02T09:37:14;9.90;99.90
20459;DHT22;10388;52.314;7.938;2024-03-02T09:39:45;10.00;99.90
20459;DHT22;10388;52.314;7.938;2024-03-02T09:42:15;10.10;99.90
20459;DHT22;10388;52.314;7.938;2024-03-02T09:44:47;10.10;99.90
20459;DHT22;10388;52.314;7.938;2024-03-02T09:47:18;10.10;99.90
20459;DHT22;10388;52.314;7.938;2024-03-02T09:49:48;10.10;99.90
20459;DHT22;10388;52.314;7.938;2024-03-02T09:52:19;10.20;99.90
20459;DHT22;10388;52.314;7.938;2024-03-02T09:54:50;10.30;99.90
20459;DHT22;10388;52.314;7.938;2024-03-02T09:57:21;10.40;99.90
20459;DHT22;10388;52.314;7.938;2024-03-02T09:59:52;10.50;99.90
20459;DHT22;10388;52.314;7.938;2024-03-02T10:02:22;10.60;99.90
20459;DHT22;10388;52.314;7.938;2024-03-02T10:04:53;10.50;99.90
20459;DHT22;10388;52.314;7.938;2024-03-02T10:07:24;10.40;99.90
20459;DHT22;10388;52.314;7.938;2024-03-02T10:09:54;10.50;99.90
20459;DHT22;10388;52.314;7.938;2024-03-02T10:12:25;10.50;99.90
20459;DHT22;10388;52.314;7.938;2024-03-02T10:15:03;10.70;99.90
20459;DHT22;10388;52.314;7.938;2024-03-02T10:17:35;10.70;99.90
20459;DHT22;10388;52.314;7.938;2024-03-02T10:20:25;10.80;99.90
20459;DHT22;10388;52.314;7.938;2024-03-02T10:23:15;10.90;99.90
20459;DHT22;10388;52.314;7.938;2024-03-02T10:25:46;11.00;99.90
20459;DHT22;10388;52.314;7.938;2024-03-02T10:28:17;11.10;99.90
20459;DHT22;10388;52.314;7.938;2024-03-02T10:30:48;11.10;99.90
20459;DHT22;10388;52.314;7.938;2024-03-02T10:33:24;11.20;99.90
20459;DHT22;10388;52.314;7.938;2024-03-02T10:35:54;11.20;99.90
20459;DHT22;10388;52.314;7.938;2024-03-02T10:38:25;11.30;99.90
20459;DHT22;10388;52.314;7.938;2024-03-02T10:40:58;11.40;99.90
20459;DHT22;10388;52.314;7.938;2024-03-02T10:43:30;11.30;99.90
20459;DHT22;10388;52.314;7.938;2024-03-02T10:46:01;11.40;99.90
20459;DHT22;10388;52.314;7.938;2024-03-02T10:48:33;11.60;99.90
20459;DHT22;10388;52.314;7.938;2024-03-02T10:51:04;11.60;99.90
20459;DHT22;10388;52.314;7.938;2024-03-02T10:53:35;11.70;99.90
20459;DHT22;10388;52.314;7.938;2024-03-02T10:56:07;11.80;99.90
20459;DHT22;10388;52.314;7.938;2024-03-02T10:58:40;11.80;99.90
20459;DHT22;10388;52.314;7.938;2024-03-02T11:01:11;11.90;99.90
20459;DHT22;10388;52.314;7.938;2024-03-02T11:03:43;11.90;99.90
20459;DHT22;10388;52.314;7.938;2024-03-02T11:06:15;11.90;99.90
20459;DHT22;10388;52.314;7.938;2024-03-02T11:08:47;12.00;99.90
20459;DHT22;10388;52.314;7.938;2024-03-02T11:11:24;12.10;99.90
20459;DHT22;10388;52.314;7.938;2024-03-02T11:13:57;12.10;99.90
20459;DHT22;10388;52.314;7.938;2024-03-02T11:16:36;12.20;99.90
20459;DHT22;10388;52.314;7.938;2024-03-02T11:19:10;12.30;99.90
20459;DHT22;10388;52.314;7.938;2024-03-02T11:21:42;12.40;99.90
20459;DHT22;10388;52.314;7.938;2024-03-02T11:26:57;12.50;99.90
20459;DHT22;10388;52.314;7.938;2024-03-02T11:32:22;12.60;99.90
20459;DHT22;10388;52.314;7.938;2024-03-02T11:34:55;12.70;99.90
20459;DHT22;10388;52.314;7.938;2024-03-02T11:37:26;12.80;99.90
20459;DHT22;10388;52.314;7.938;2024-03-02T11:39:56;12.90;99.90
20459;DHT22;10388;52.314;7.938;2024-03-02T11:42:27;13.00;99.90
20459;DHT22;10388;52.314;7.938;2024-03-02T11:44:58;13.10;99.90
20459;DHT22;10388;52.314;7.938;2024-03-02T11:47:31;12.90;99.90
20459;DHT22;10388;52.314;7.938;2024-03-02T11:50:03;12.90;99.90
20459;DHT22;10388;52.314;7.938;2024-03-02T11:52:38;13.10;99.90
20459;DHT22;10388;52.314;7.938;2024-03-02T11:55:11;13.30;99.90
20459;DHT22;10388;52.314;7.938;2024-03-02T11:57:43;13.20;99.90
20459;DHT22;10388;52.314;7.938;2024-03-02T12:00:20;13.10;99.90
20459;DHT22;10388;52.314;7.938;2024-03-02T12:03:09;13.40;99.90
20459;DHT22;10388;52.314;7.938;2024-03-02T12:05:42;13.70;99.90
20459;DHT22;10388;52.314;7.938;2024-03-02T12:08:13;13.70;99.90
20459;DHT22;10388;52.314;7.938;2024-03-02T12:10:56;13.60;99.90
20459;DHT22;10388;52.314;7.938;2024-03-02T12:13:27;13.80;99.90
20459;DHT22;10388;52.314;7.938;2024-03-02T12:15:58;14.00;99.90
20459;DHT22;10388;52.314;7.938;2024-03-02T12:18:28;13.90;99.90
20459;DHT22;10388;52.314;7.938;2024-03-02T12:20:59;13.90;99.90
20459;DHT22;10388;52.314;7.938;2024-03-02T12:23:30;13.90;99.90
20459;DHT22;10388;52.314;7.938;2024-03-02T12:26:00;14.10;99.90
20459;DHT22;10388;52.314;7.938;2024-03-02T12:28:32;13.90;99.90
20459;DHT22;10388;52.314;7.938;2024-03-02T12:31:04;13.60;99.90
20459;DHT22;10388;52.314;7.938;2024-03-02T12:33:34;13.60;99.90
20459;DHT22;10388;52.314;7.938;2024-03-02T12:36:05;13.60;99.90
20459;DHT22;10388;52.314;7.938;2024-03-02T12:38:45;13.80;99.90
20459;DHT22;10388;52.314;7.938;2024-03-02T12:41:17;13.80;99.90
20459;DHT22;10388;52.314;7.938;2024-03-02T12:43:47;13.80;99.90
20459;DHT22;10388;52.314;7.938;2024-03-02T12:46:18;13.80;99.90
20459;DHT22;10388;52.314;7.938;2024-03-02T12:48:48;13.70;99.90
20459;DHT22;10388;52.314;7.938;2024-03-02T12:51:19;13.80;99.90
20459;DHT22;10388;52.314;7.938;2024-03-02T12:53:54;14.00;99.90
20459;DHT22;10388;52.314;7.938;2024-03-02T12:56:25;14.10;99.90
20459;DHT22;10388;52.314;7.938;2024-03-02T12:58:56;14.00;99.90
20459;DHT22;10388;52.314;7.938;2024-03-02T13:01:28;14.00;99.90
20459;DHT22;10388;52.314;7.938;2024-03-02T13:03:59;13.90;99.90
20459;DHT22;10388;52.314;7.938;2024-03-02T13:06:29;13.90;99.90
20459;DHT22;10388;52.314;7.938;2024-03-02T13:09:03;13.90;99.90
20459;DHT22;10388;52.314;7.938;2024-03-02T13:11:33;14.10;99.90
20459;DHT22;10388;52.314;7.938;2024-03-02T13:14:05;14.20;99.90
20459;DHT22;10388;52.314;7.938;2024-03-02T13:16:39;14.40;99.90
20459;DHT22;10388;52.314;7.938;2024-03-02T13:19:14;14.60;99.90
20459;DHT22;10388;52.314;7.938;2024-03-02T13:21:44;14.30;99.90
20459;DHT22;10388;52.314;7.938;2024-03-02T13:24:15;14.00;99.90
20459;DHT22;10388;52.314;7.938;2024-03-02T13:26:45;13.70;99.90
20459;DHT22;10388;52.314;7.938;2024-03-02T13:29:16;14.00;99.90
20459;DHT22;10388;52.314;7.938;2024-03-02T13:31:46;14.40;99.90
20459;DHT22;10388;52.314;7.938;2024-03-02T13:34:17;14.50;99.90
20459;DHT22;10388;52.314;7.938;2024-03-02T13:36:48;14.70;99.90
20459;DHT22;10388;52.314;7.938;2024-03-02T13:39:18;14.80;99.90
20459;DHT22;10388;52.314;7.938;2024-03-02T13:41:49;14.50;99.90
20459;DHT22;10388;52.314;7.938;2024-03-02T13:44:23;14.40;99.90
20459;DHT22;10388;52.314;7.938;2024-03-02T13:46:54;14.50;99.90
20459;DHT22;10388;52.314;7.938;2024-03-02T13:49:24;14.50;99.90
20459;DHT22;10388;52.314;7.938;2024-03-02T13:52:08;14.70;99.90
20459;DHT22;10388;52.314;7.938;2024-03-02T13:54:44;14.80;99.90
20459;DHT22;10388;52.314;7.938;2024-03-02T13:57:15;14.90;99.90
20459;DHT22;10388;52.314;7.938;2024-03-02T13:59:50;14.80;99.90
20459;DHT22;10388;52.314;7.938;2024-03-02T14:02:22;14.90;99.90
20459;DHT22;10388;52.314;7.938;2024-03-02T14:04:53;14.80;99.90
20459;DHT22;10388;52.314;7.938;2024-03-02T14:07:23;14.80;99.90
20459;DHT22;10388;52.314;7.938;2024-03-02T14:09:54;15.00;99.90
20459;DHT22;10388;52.314;7.938;2024-03-02T14:12:24;15.00;99.90
20459;DHT22;10388;52.314;7.938;2024-03-02T14:14:55;15.10;99.90
20459;DHT22;10388;52.314;7.938;2024-03-02T14:17:29;15.10;99.90
20459;DHT22;10388;52.314;7.938;2024-03-02T14:20:00;14.90;99.90
20459;DHT22;10388;52.314;7.938;2024-03-02T14:22:31;14.80;99.90
20459;DHT22;10388;52.314;7.938;2024-03-02T14:25:02;14.60;99.90
20459;DHT22;10388;52.314;7.938;2024-03-02T14:27:32;14.70;99.90
20459;DHT22;10388;52.314;7.938;2024-03-02T14:30:03;14.80;99.90
20459;DHT22;10388;52.314;7.938;2024-03-02T14:32:35;15.00;99.90
20459;DHT22;10388;52.314;7.938;2024-03-02T14:35:09;15.00;99.90
20459;DHT22;10388;52.314;7.938;2024-03-02T14:37:40;14.80;99.90
20459;DHT22;10388;52.314;7.938;2024-03-02T14:40:11;15.00;99.90
20459;DHT22;10388;52.314;7.938;2024-03-02T14:42:46;15.00;99.90
20459;DHT22;10388;52.314;7.938;2024-03-02T14:45:18;14.90;99.90
20459;DHT22;10388;52.314;7.938;2024-03-02T14:47:49;15.00;99.90
20459;DHT22;10388;52.314;7.938;2024-03-02T14:50:20;15.10;99.90
20459;DHT22;10388;52.314;7.938;2024-03-02T14:52:51;15.30;99.90
20459;DHT22;10388;52.314;7.938;2024-03-02T14:55:22;15.30;99.90
20459;DHT22;10388;52.314;7.938;2024-03-02T14:57:52;15.10;99.90
20459;DHT22;10388;52.314;7.938;2024-03-02T15:00:23;15.30;99.90
20459;DHT22;10388;52.314;7.938;2024-03-02T15:02:54;15.30;99.90
20459;DHT22;10388;52.314;7.938;2024-03-02T15:05:24;15.30;99.90
20459;DHT22;10388;52.314;7.938;2024-03-02T15:07:56;15.30;99.90
20459;DHT22;10388;52.314;7.938;2024-03-02T15:10:30;15.10;99.90
20459;DHT22;10388;52.314;7.938;2024-03-02T15:13:00;14.90;99.90
20459;DHT22;10388;52.314;7.938;2024-03-02T15:17:55;14.70;99.90
20459;DHT22;10388;52.314;7.938;2024-03-02T15:20:25;14.50;99.90
20459;DHT22;10388;52.314;7.938;2024-03-02T15:22:56;14.40;99.90
20459;DHT22;10388;52.314;7.938;2024-03-02T15:25:26;14.30;99.90
20459;DHT22;10388;52.314;7.938;2024-03-02T15:27:57;14.30;99.90
20459;DHT22;10388;52.314;7.938;2024-03-02T15:30:28;14.30;99.90
20459;DHT22;10388;52.314;7.938;2024-03-02T15:32:58;14.20;99.90
20459;DHT22;10388;52.314;7.938;2024-03-02T15:35:29;14.10;99.90
20459;DHT22;10388;52.314;7.938;2024-03-02T15:37:59;14.10;99.90
20459;DHT22;10388;52.314;7.938;2024-03-02T15:40:30;14.00;99.90
20459;DHT22;10388;52.314;7.938;2024-03-02T15:43:01;13.90;99.90
20459;DHT22;10388;52.314;7.938;2024-03-02T15:45:31;13.90;99.90
20459;DHT22;10388;52.314;7.938;2024-03-02T15:48:04;13.90;99.90
20459;DHT22;10388;52.314;7.938;2024-03-02T15:50:35;13.80;99.90
20459;DHT22;10388;52.314;7.938;2024-03-02T15:53:07;13.80;99.90
20459;DHT22;10388;52.314;7.938;2024-03-02T15:55:37;13.70;99.90
20459;DHT22;10388;52.314;7.938;2024-03-02T15:58:08;13.70;99.90
20459;DHT22;10388;52.314;7.938;2024-03-02T16:00:39;13.60;99.90
20459;DHT22;10388;52.314;7.938;2024-03-02T16:03:10;13.60;99.90
20459;DHT22;10388;52.314;7.938;2024-03-02T16:05:40;13.50;99.90
20459;DHT22;10388;52.314;7.938;2024-03-02T16:08:11;13.50;99.90
20459;DHT22;10388;52.314;7.938;2024-03-02T16:10:41;13.40;99.90
20459;DHT22;10388;52.314;7.938;2024-03-02T16:13:12;13.30;99.90
20459;DHT22;10388;52.314;7.938;2024-03-02T16:15:42;13.30;99.90
20459;DHT22;10388;52.314;7.938;2024-03-02T16:18:13;13.20;99.90
20459;DHT22;10388;52.314;7.938;2024-03-02T16:20:43;13.10;99.90
20459;DHT22;10388;52.314;7.938;2024-03-02T16:23:14;13.10;99.90
20459;DHT22;10388;52.314;7.938;2024-03-02T16:25:45;13.00;99.90
20459;DHT22;10388;52.314;7.938;2024-03-02T16:28:15;12.90;99.90
20459;DHT22;10388;52.314;7.938;2024-03-02T16:30:46;12.90;99.90
20459;DHT22;10388;52.314;7.938;2024-03-02T16:33:16;12.90;99.90
20459;DHT22;10388;52.314;7.938;2024-03-02T16:35:48;12.80;99.90
20459;DHT22;10388;52.314;7.938;2024-03-02T16:38:20;12.70;99.90
20459;DHT22;10388;52.314;7.938;2024-03-02T16:40:50;12.60;99.90
20459;DHT22;10388;52.314;7.938;2024-03-02T16:43:21;12.60;99.90
20459;DHT22;10388;52.314;7.938;2024-03-02T16:45:51;12.50;99.90
20459;DHT22;10388;52.314;7.938;2024-03-02T16:48:22;12.50;99.90
20459;DHT22;10388;52.314;7.938;2024-03-02T16:50:52;12.40;99.90
20459;DHT22;10388;52.314;7.938;2024-03-02T16:53:23;12.40;99.90
20459;DHT22;10388;52.314;7.938;2024-03-02T16:55:59;12.30;99.90
20459;DHT22;10388;52.314;7.938;2024-03-02T16:58:29;12.20;99.90
20459;DHT22;10388;52.314;7.938;2024-03-02T17:01:00;12.20;99.90
20459;DHT22;10388;52.314;7.938;2024-03-02T17:03:31;12.10;99.90
20459;DHT22;10388;52.314;7.938;2024-03-02T17:06:02;12.10;99.90
20459;DHT22;10388;52.314;7.938;2024-03-02T17:08:32;11.90;99.90
20459;DHT22;10388;52.314;7.938;2024-03-02T17:11:03;11.90;99.90
20459;DHT22;10388;52.314;7.938;2024-03-02T17:13:34;11.90;99.90
20459;DHT22;10388;52.314;7.938;2024-03-02T17:16:04;11.80;99.90
20459;DHT22;10388;52.314;7.938;2024-03-02T17:18:35;11.90;99.90
20459;DHT22;10388;52.314;7.938;2024-03-02T17:21:05;11.80;99.90
20459;DHT22;10388;52.314;7.938;2024-03-02T17:23:36;11.80;99.90
20459;DHT22;10388;52.314;7.938;2024-03-02T17:26:07;11.60;99.90
20459;DHT22;10388;52.314;7.938;2024-03-02T17:28:37;11.60;99.90
20459;DHT22;10388;52.314;7.938;2024-03-02T17:31:08;11.50;99.90
20459;DHT22;10388;52.314;7.938;2024-03-02T17:33:39;11.50;99.90
20459;DHT22;10388;52.314;7.938;2024-03-02T17:36:09;11.50;99.90
20459;DHT22;10388;52.314;7.938;2024-03-02T17:38:40;11.40;99.90
20459;DHT22;10388;52.314;7.938;2024-03-02T17:41:11;11.40;99.90
20459;DHT22;10388;52.314;7.938;2024-03-02T17:43:42;11.40;99.90
20459;DHT22;10388;52.314;7.938;2024-03-02T17:46:12;11.30;99.90
20459;DHT22;10388;52.314;7.938;2024-03-02T17:48:43;11.30;99.90
20459;DHT22;10388;52.314;7.938;2024-03-02T17:51:15;11.20;99.90
20459;DHT22;10388;52.314;7.938;2024-03-02T17:53:46;11.20;99.90